This is the latest recevied weather packets stored in our database for station/object N7TUG-8. If no packets are shown the sender has not sent any weather packets the latest 10 day(s).
| Time | Temp. | Humidity | Pressure | Rain* | Wind** | Luminosity | Snow |
|---|---|---|---|---|---|---|---|
| 1777962355 | 14.44° C | 83% | 1011.1 hPa | 0 mm | 2.24 m/s, 116° | - | - |
| 1777961455 | 15° C | 82% | 1010.8 hPa | 0 mm | 2.68 m/s, 129° | - | - |
| 1777961067 | 15° C | 82% | 1010.7 hPa | 0 mm | 3.13 m/s, 122° | - | - |
| 1777960495 | 15.56° C | 82% | 1010.5 hPa | 0 mm | 3.13 m/s, 125° | - | - |
| 1777959611 | 15.56° C | 81% | 1010.4 hPa | 0 mm | 3.13 m/s, 141° | - | - |
| 1777959512 | 15.56° C | 81% | 1010.4 hPa | 0 mm | 3.13 m/s, 141° | - | - |
| 1777958675 | 15.56° C | 81% | 1010.3 hPa | 0 mm | 2.68 m/s, 144° | - | - |
| 1777957846 | 16.11° C | 80% | 1010.3 hPa | 0 mm | 2.68 m/s, 145° | - | - |
| 1777957055 | 16.11° C | 79% | 1010.2 hPa | 0 mm | 3.58 m/s, 153° | - | - |
| 1777957022 | 16.11° C | 79% | 1010.2 hPa | 0 mm | 3.58 m/s, 153° | - | - |
| 1777956901 | 16.67° C | 78% | 1010.1 hPa | 0 mm | 4.02 m/s, 161° | - | - |
| 1777956176 | 16.67° C | 77% | 1010.1 hPa | 0 mm | 2.68 m/s, 157° | - | - |
| 1777955991 | 17.22° C | 77% | 1009.9 hPa | 0 mm | 3.13 m/s, 159° | - | - |
| 1777955307 | 17.78° C | 75% | 1009.9 hPa | 0 mm | 2.68 m/s, 161° | - | - |
| 1777955141 | 17.78° C | 75% | 1009.9 hPa | 0 mm | 2.68 m/s, 161° | - | - |
| 1777954472 | 18.33° C | 73% | 1009.6 hPa | 0 mm | 1.79 m/s, 176° | - | - |
| 1777954255 | 18.33° C | 73% | 1009.6 hPa | 0 mm | 1.79 m/s, 176° | - | - |
| 1777953411 | 18.89° C | 73% | 1009.3 hPa | 0 mm | 2.68 m/s, 161° | - | - |
| 1777952501 | 19.44° C | 71% | 1009.1 hPa | 0 mm | 2.24 m/s, 163° | - | - |
| 1777952012 | 20° C | 70% | 1008.9 hPa | 0 mm | 2.24 m/s, 173° | - | - |
| 1777951646 | 20° C | 70% | 1008.9 hPa | 0 mm | 2.24 m/s, 168° | - | - |
| 1777951276 | 20° C | 69% | 1008.9 hPa | 0 mm | 2.68 m/s, 166° | - | - |
| 1777950795 | 20.56° C | 68% | 1008.8 hPa | 0 mm | 3.13 m/s, 162° | - | - |
| 1777950442 | 21.11° C | 65% | 1008.7 hPa | 0 mm | 3.13 m/s, 159° | - | - |
| 1777950011 | 23.33° C | 60% | 1008.5 hPa | 0 mm | 1.34 m/s, 192° | - | - |
* Rain latest hour (hover to see other rain measurements)
** Current wind speed in m/s (hover to see current wind gust speed)